Ride Results

Q60 (04-05-2014)
Ride distance: 100.0 km Elevator

Outcomes - Q60 (04-05-2014)
Division No. of Entries Retired / DNE Completed Withdrawn Ineligible V/O Percentage Completed
HW 11 5 1 3 - 2 54.55%
MW 11 7 2 1 - 1 81.82%
LW 11 4 5 - - 2 81.82%
JN 7 6 1 - - - 100.00%
Totals 40 22 9 4 - 5 77.50%
Results - Q60 (04-05-2014)
No. Rider Horse Place Time Leg Speeds Total
Km/Hr
H/R bpm
Heavyweight
26 Roy Barsby Dumaresq Buzz 1 (BC) 6:46:00 15.8, 13.2, 14.8 14.78 34, 42, 53, 46 (Avg:47)
43 Charles Gauci Charleville Lady Retired/DNE L2 5:12:00 16.6, 13.6 15.38 38, 55, 59 (Avg:57)
40 Alan Mackinder Ballygowan Phoenix Retired/DNE L2 7:07:00 13.3, 8.9 11.24 35, 41, 43 (Avg:42)
38 Susan Luthy Ningadoo Kolo Retired/DNE L2 8:08:00 13.2, 6.8 9.84 42, 44, 60 (Avg:52)
2 Sue Warren Razorback Flash Retired/DNE L2 8:08:00 11.7, 7.7 9.84 38, 44, 50 (Avg:47)
10 Garry Matthews Sensahra Zavisha Retired/DNE L2 9:53:00 9.5, 6.4 8.09 42, 46, 52 (Avg:49)
7 Jack Johnson Sharahd Chemoss Lame L2 0:00:00 14.1, 9.1 - 34, 38, 60 (Avg:49)
23 Haydn Fisher Raymar Khalif Lame L1 0:00:00 15.9 - 43, 43 (Avg:43)
12 Thomas Hermann TTH Headliner Widthdrawn L1 0:00:00 - - 36, 36 (Avg:36)
41 Scott Maxwell Arabesque Gemstar Widthdrawn L1 0:00:00 - - 42, 45 (Avg:45)
19 Marita Rifai Tianna Widthdrawn L1 0:00:00 - - 36, 46 (Avg:46)
Middleweight
44 April Bonham Ralvon Courier 1 (BC) 7:35:00 13.8, 11.1, 15.5 13.19 36, 46, 46, 45 (Avg:45)
3 Tayla Warren Warren Park O.B. One 2 9:03:00 11.7, 9.4, 12.3 11.05 35, 36, 52, 42 (Avg:43)
18 Jennifer Gilbertson Windaroo Devina Glamour Retired/DNE L2 5:42:00 15.7, 11.8 14.04 40, 46, 49 (Avg:47)
13 Brett Willis Carlwood Park Austen Retired/DNE L2 6:26:00 15.5, 9.3 12.44 33, 39, 47 (Avg:43)
1 Allana Rempel Ralvon Milarna Retired/DNE L2 6:27:00 15.1, 9.5 12.40 35, 42, 54 (Avg:48)
6 Scott Peters Castlebar Icon Retired/DNE L2 6:49:00 14.1, 9.1 11.74 35, 42, 51 (Avg:46)
30 Simon Bain Akifa Farras Ice Retired/DNE L2 7:47:00 12.3, 7.9 10.28 42, 52, 60 (Avg:56)
24 Johanne Gardiner Dumaresq Desert Sky Retired/DNE L2 8:39:00 10.2, 7.9 9.25 35, 36, 42 (Avg:39)
21 Hailey Skilbeck Wings Exhibit Retired/DNE L2 9:53:00 9.5, 6.4 8.09 40, 42, 49 (Avg:45)
8 Jo Davis Wicketly Good Lame L2 0:00:00 9.5, 6.4 - 36, 45, 45 (Avg:45)
25 Deanna Loomes Dumaresq Party Girl Widthdrawn L1 0:00:00 - - 39, 40 (Avg:40)
Lightweight
5 April Newman Tarnette 1 (BC) 6:11:00 16.1, 14.2, 20.3 16.17 32, 43, 43, 49 (Avg:45)
39 Roz Edmunds Everon Park Apollo 2 6:57:00 16.6, 13.6, 11.4 14.39 33, 40, 49, 43 (Avg:44)
15 Leanne Holz Carlwood Park Frosty 3 7:40:00 15.5, 9.3, 16.2 13.04 36, 41, 42, 43 (Avg:42)
17 Robin Gossip Lila 4 8:00:00 15.5, 9.4, 12.3 12.50 34, 49, 52, 48 (Avg:49)
33 Codey Bergsma Macquarie Park Dassan 5 8:36:00 12.0, 9.5, 15.3 11.63 53, 41, 54, 47 (Avg:47)
20 Narelle Bush Rowallan Seek Retired/DNE L2 6:43:00 12.3, 11.1 11.91 34, 36, 42 (Avg:39)
4 Cherry Cummins Holly Retired/DNE L2 7:03:00 12.8, 9.5 11.35 36, 44, 44, 0 (Avg:29)
11 Sally Fenner Cherox Aladdin Retired/DNE L2 7:26:00 15.5, 7.1 10.76 0, 40, 47, 50 (Avg:48)
42 Julie Preston Archiebold Retired/DNE L2 7:47:00 13.2, 7.4 10.28 36, 41, 46 (Avg:43)
32 Katie Brown Ballalaba's Ulysses Denmark Heart Rate L2 0:00:00 12.0, 8.4 - 35, 46, 80, 0 (Avg:42)
16 Sonya Nicholls Suncrest Ghazaal Lame L1 0:00:00 12.7 - 33, 35 (Avg:35)
Junior
36 Georgia Curry Macquarie Park Banjo 1 (BC) 8:36:00 12.8, 9.5, 12.9 11.63 37, 46, 49, 47 (Avg:47)
37 Brooke Luthy Mystical Knight Retired/DNE L2 7:07:00 13.2, 8.9 11.24 38, 44, 56 (Avg:50)
34 Victoria Bice Georgie Girl Retired/DNE L2 8:31:00 11.4, 7.2 9.39 38, 42, 48 (Avg:45)
35 Josephine Jansen Zulu's Dark Angel Retired/DNE L2 8:31:00 11.4, 7.2 9.39 44, 39, 48 (Avg:43)
29 Tenille Circosta Oscar Retired/DNE L2 9:34:00 9.6, 6.8 8.36 40, 46, 56 (Avg:51)
28 Makayla Circosta Ropa Park Bella Rastique Retired/DNE L2 9:34:00 9.6, 6.8 8.36 36, 46, 39 (Avg:42)
27 Isabella Circosta Ropa Park Bella Shakila Retired/DNE L2 9:34:00 9.6, 6.8 8.36 36, 42, 42, 0 (Avg:28)